Time;durP1;ratioP1;P1;durP2;ratioP2;P2;SDS_P1;SDS_P2;PMS_P1;PMS_P2;Temp;Humidity;BMP_temperature;BMP_pressure;BME280_temperature;BME280_humidity;BME280_pressure;Samples;Min_cycle;Max_cycle;Signal;HPM_P1;HPM_P2
2024/01/08 00:02:14;;;;;;;10.93;4.88;;;0.40;99.90;;;0.25;56.63;101771.19;5055279;28;20055;-82
2024/01/08 00:04:41;;;;;;;10.75;4.85;;;0.20;99.90;;;0.22;57.13;101763.53;5055514;28;20482;-82
2024/01/08 00:07:09;;;;;;;10.32;4.65;;;0.10;99.90;;;0.31;57.32;101762.88;5073364;28;20049;-82
2024/01/08 00:09:36;;;;;;;9.05;5.25;;;0.20;99.90;;;0.29;57.22;101769.16;5064419;28;20041;-82
2024/01/08 00:12:05;;;;;;;9.50;5.00;;;0.20;99.90;;;0.38;57.90;101766.69;5056985;28;20049;-82
2024/01/08 00:14:33;;;;;;;9.65;5.63;;;0.30;99.90;;;0.44;58.37;101773.28;5059275;28;20053;-82
2024/01/08 00:17:00;;;;;;;10.02;5.40;;;0.30;99.90;;;0.42;58.23;101786.53;5076429;28;20033;-82
2024/01/08 00:19:30;;;;;;;9.48;5.95;;;0.30;99.90;;;0.33;58.20;101774.06;5076785;28;20050;-82
2024/01/08 00:21:58;;;;;;;10.73;6.25;;;0.20;99.90;;;0.31;58.36;101777.78;5094469;28;20041;-82
2024/01/08 00:24:25;;;;;;;11.07;5.93;;;0.20;99.90;;;0.34;58.99;101772.28;5079287;28;20041;-82
2024/01/08 00:26:52;;;;;;;10.73;6.10;;;0.30;99.90;;;0.42;58.97;101772.56;5078601;28;20098;-82
2024/01/08 00:29:20;;;;;;;11.02;6.35;;;0.30;99.90;;;0.42;58.53;101765.53;5077973;28;20499;-82
2024/01/08 00:31:48;;;;;;;11.25;5.82;;;0.30;99.90;;;0.44;58.73;101768.91;5077425;28;20052;-82
2024/01/08 00:34:15;;;;;;;10.13;6.38;;;0.30;99.90;;;0.37;58.42;101757.16;5061285;28;20041;-82
2024/01/08 00:36:44;;;;;;;9.57;6.20;;;0.20;99.90;;;0.25;58.30;101769.41;5077029;28;20040;-83
2024/01/08 00:39:12;;;;;;;10.05;5.90;;;0.20;99.90;;;0.36;58.40;101763.38;5059165;28;20071;-82
2024/01/08 00:41:41;;;;;;;9.95;6.05;;;0.30;99.90;;;0.31;58.25;101768.13;5057468;28;20037;-84
2024/01/08 00:44:08;;;;;;;14.63;5.60;;;0.20;99.90;;;0.27;58.33;101763.22;5060191;28;20037;-82
2024/01/08 00:46:37;;;;;;;9.43;5.65;;;0.20;99.90;;;0.20;58.53;101768.06;5036571;28;20052;-82
2024/01/08 00:49:05;;;;;;;10.43;5.88;;;0.10;99.90;;;0.15;58.65;101773.66;5066231;28;20073;-82
2024/01/08 00:51:33;;;;;;;10.50;5.55;;;0.10;99.90;;;0.16;58.65;101771.88;5060792;28;20049;-83
2024/01/08 00:54:02;;;;;;;11.35;5.68;;;0.10;99.90;;;0.16;58.86;101779.72;5060191;28;20079;-82
2024/01/08 00:56:30;;;;;;;10.38;5.85;;;0.10;99.90;;;0.19;58.97;101772.47;5068247;28;20045;-82
2024/01/08 00:59:01;;;;;;;12.50;6.05;;;0.10;99.90;;;0.21;58.13;101772.38;5059137;28;20569;-83
2024/01/08 01:01:28;;;;;;;11.38;6.20;;;0.10;99.90;;;0.17;58.60;101776.16;5071862;28;20045;-83
2024/01/08 01:03:56;;;;;;;11.15;5.95;;;0.10;99.90;;;0.06;58.71;101763.00;5095859;28;20123;-82
2024/01/08 01:06:23;;;;;;;9.32;5.50;;;0.00;99.90;;;0.05;58.72;101769.16;5049438;28;20057;-82
2024/01/08 01:08:50;;;;;;;10.43;5.68;;;0.00;99.90;;;0.04;58.82;101775.34;5058805;28;20048;-83
2024/01/08 01:11:20;;;;;;;9.32;5.35;;;0.00;99.90;;;0.04;59.04;101773.56;5072414;28;20052;-82
2024/01/08 01:13:47;;;;;;;10.63;6.10;;;0.00;99.90;;;0.02;58.92;101780.72;5078995;28;20053;-82
2024/01/08 01:16:15;;;;;;;12.13;5.85;;;-0.10;99.90;;;0.03;59.34;101781.56;5078010;28;20036;-83
2024/01/08 01:18:42;;;;;;;11.75;6.18;;;-0.10;99.90;;;0.10;59.59;101781.03;5051693;28;20144;-82
2024/01/08 01:21:20;;;;;;;10.20;5.75;;;0.00;99.90;;;0.10;59.43;101790.66;5042198;28;20178;-82
2024/01/08 01:23:47;;;;;;;13.00;5.90;;;0.00;99.90;;;0.11;59.44;101793.19;5059069;28;20079;-82
2024/01/08 01:26:15;;;;;;;12.55;6.38;;;-0.30;99.90;;;0.08;59.43;101788.13;5058151;28;20131;-82
2024/01/08 01:28:44;;;;;;;10.07;5.60;;;-0.10;99.90;;;0.01;59.40;101794.78;5069960;28;20052;-84
2024/01/08 01:31:12;;;;;;;10.82;6.35;;;-0.10;99.90;;;-0.05;59.74;101796.06;5062502;28;20067;-83
2024/01/08 01:33:40;;;;;;;13.23;6.68;;;-0.20;99.90;;;-0.08;59.73;101814.63;5061709;28;20045;-82
2024/01/08 01:36:08;;;;;;;10.40;6.32;;;-0.40;99.90;;;-0.32;60.13;101798.00;5058808;28;20515;-82
2024/01/08 01:38:36;;;;;;;10.38;6.00;;;-0.40;99.90;;;-0.33;60.21;101799.81;5014869;28;20080;-83
2024/01/08 01:41:03;;;;;;;9.77;5.78;;;-0.40;99.90;;;-0.32;60.73;101803.25;5058700;28;20073;-81
2024/01/08 01:43:32;;;;;;;12.15;6.53;;;-0.40;99.90;;;-0.42;60.77;101803.06;4975607;28;20057;-81
2024/01/08 01:46:07;;;;;;;10.52;5.85;;;-0.50;99.90;;;-0.46;60.83;101819.09;5058185;28;20052;-82
2024/01/08 01:48:38;;;;;;;10.18;5.50;;;-0.50;99.90;;;-0.40;60.95;101802.94;5059445;28;20424;-82
2024/01/08 01:51:06;;;;;;;11.13;6.22;;;-0.50;99.90;;;-0.22;61.17;101816.56;5062843;28;20049;-82
2024/01/08 01:53:34;;;;;;;11.85;6.15;;;-0.30;99.90;;;-0.13;60.54;101800.19;5057707;28;20045;-82
2024/01/08 01:56:03;;;;;;;11.30;5.80;;;-0.30;99.90;;;-0.26;60.72;101810.69;5058776;28;20496;-82
2024/01/08 01:58:35;;;;;;;10.13;5.80;;;-0.30;99.90;;;-0.32;60.90;101811.13;5057489;28;20489;-82
2024/01/08 02:01:05;;;;;;;9.70;6.03;;;-0.40;99.90;;;-0.44;60.99;101817.19;5050493;28;20056;-82
2024/01/08 02:03:35;;;;;;;10.82;5.85;;;-0.50;99.90;;;-0.34;61.50;101819.09;5076551;28;20094;-82
2024/01/08 02:06:06;;;;;;;9.00;5.40;;;-0.40;99.90;;;-0.23;60.88;101813.09;5043655;28;20520;-82
2024/01/08 02:08:35;;;;;;;10.93;5.85;;;-0.30;99.90;;;-0.22;61.41;101814.75;5075399;28;20040;-82
2024/01/08 02:11:04;;;;;;;11.13;6.35;;;-0.30;99.90;;;-0.18;61.05;101808.38;5075698;28;20514;-82
2024/01/08 02:13:31;;;;;;;9.93;6.05;;;-0.30;99.90;;;-0.12;61.41;101807.94;5056914;28;20090;-82
2024/01/08 02:15:59;;;;;;;9.90;5.55;;;-0.20;99.90;;;-0.14;60.81;101801.97;5039977;28;20064;-82
2024/01/08 02:18:31;;;;;;;10.10;6.40;;;-0.30;99.90;;;-0.12;61.17;101807.94;5040520;28;20056;-82
2024/01/08 02:20:58;;;;;;;10.43;6.05;;;-0.30;99.90;;;-0.06;61.24;101804.84;5023647;28;20543;-82
2024/01/08 02:23:27;;;;;;;12.70;5.97;;;-0.20;99.90;;;-0.04;61.10;101808.22;5006827;28;20076;-82
2024/01/08 02:25:55;;;;;;;11.52;6.32;;;-0.20;99.90;;;-0.19;60.76;101806.69;5040332;28;20045;-85
2024/01/08 02:28:25;;;;;;;10.32;5.93;;;-0.30;99.90;;;-0.24;61.44;101795.69;5075763;28;20052;-82
2024/01/08 02:30:53;;;;;;;11.23;6.20;;;-0.20;99.90;;;-0.14;61.66;101788.84;5075391;28;20318;-82
2024/01/08 02:33:20;;;;;;;8.57;5.43;;;-0.30;99.90;;;-0.17;61.75;101796.94;5059259;28;20049;-82
2024/01/08 02:35:48;;;;;;;11.10;6.60;;;-0.30;99.90;;;-0.20;61.49;101794.50;5077572;28;20071;-82
2024/01/08 02:38:16;;;;;;;11.50;6.20;;;-0.30;99.90;;;-0.21;61.71;101805.94;5076446;28;20049;-82
2024/01/08 02:40:45;;;;;;;11.43;6.75;;;-0.30;99.90;;;-0.25;61.58;101809.72;5072137;28;20116;-82
2024/01/08 02:43:14;;;;;;;15.10;6.97;;;-0.30;99.90;;;-0.35;61.81;101804.28;5072869;28;20061;-82
2024/01/08 02:45:41;;;;;;;12.43;6.75;;;-0.40;99.90;;;-0.33;61.97;101799.81;5065359;28;20044;-82
2024/01/08 02:48:10;;;;;;;12.38;7.22;;;-0.30;99.90;;;-0.22;62.33;101799.03;5060135;28;20032;-83
2024/01/08 02:50:38;;;;;;;10.57;6.65;;;-0.30;99.90;;;-0.13;62.31;101793.16;5076143;28;20074;-82
2024/01/08 02:53:06;;;;;;;12.38;6.88;;;-0.30;99.90;;;-0.02;62.21;101803.69;5075309;28;20094;-82
2024/01/08 02:55:33;;;;;;;10.90;6.47;;;-0.20;99.90;;;-0.14;61.99;101801.13;5068835;28;20041;-82
2024/01/08 02:58:06;;;;;;;12.93;7.25;;;-0.30;99.90;;;-0.06;62.48;101812.72;5015871;28;20553;-83
2024/01/08 03:00:33;;;;;;;10.90;6.28;;;-0.20;99.90;;;0.04;62.52;101809.44;5025296;28;20056;-82
2024/01/08 03:03:04;;;;;;;11.93;7.00;;;-0.20;99.90;;;-0.07;61.98;101811.06;5075220;28;20044;-82
2024/01/08 03:05:31;;;;;;;12.27;7.07;;;-0.20;99.90;;;-0.05;62.44;101813.56;5052611;28;20103;-82
2024/01/08 03:07:59;;;;;;;11.30;7.00;;;-0.20;99.90;;;-0.05;62.59;101824.91;5058002;28;20095;-82
2024/01/08 03:10:26;;;;;;;12.77;6.60;;;-0.20;99.90;;;-0.08;62.12;101808.56;5056648;28;20047;-82
2024/01/08 03:12:55;;;;;;;11.32;6.43;;;-0.20;99.90;;;-0.11;62.50;101820.09;5054710;28;20442;-82
2024/01/08 03:15:25;;;;;;;12.48;7.30;;;-0.30;99.90;;;-0.07;62.65;101815.47;5056579;28;20069;-82
2024/01/08 03:17:53;;;;;;;11.88;6.95;;;-0.20;99.90;;;-0.08;62.60;101814.63;5055016;28;20072;-83
2024/01/08 03:20:22;;;;;;;16.50;7.20;;;-0.20;99.90;;;-0.11;63.15;101808.75;5056146;28;20037;-84
2024/01/08 03:22:51;;;;;;;11.57;6.43;;;-0.30;99.90;;;-0.18;62.32;101813.63;5054923;28;20049;-82
2024/01/08 03:25:22;;;;;;;9.98;6.25;;;-0.30;99.90;;;-0.10;63.26;101813.91;5062724;28;20058;-82
2024/01/08 03:27:51;;;;;;;14.68;7.25;;;-0.30;99.90;;;-0.08;62.57;101816.41;5058764;28;20044;-82
2024/01/08 03:30:18;;;;;;;14.27;6.93;;;-0.20;99.90;;;0.00;63.02;101819.34;5057635;28;20094;-82
2024/01/08 03:32:47;;;;;;;12.15;7.28;;;-0.10;99.90;;;-0.02;62.60;101824.69;5075627;28;20049;-82
2024/01/08 03:35:18;;;;;;;11.63;6.45;;;-0.10;99.90;;;-0.06;62.45;101823.22;5084404;28;20068;-82
2024/01/08 03:37:46;;;;;;;16.13;7.72;;;-0.20;99.90;;;-0.05;62.72;101816.19;5060755;28;20495;-82
2024/01/08 03:40:15;;;;;;;11.38;7.05;;;-0.20;99.90;;;-0.01;62.71;101810.63;5056630;28;20231;-81
2024/01/08 03:42:44;;;;;;;11.65;7.05;;;-0.20;99.90;;;0.10;62.88;101819.50;5074523;28;20079;-83
2024/01/08 03:45:11;;;;;;;12.68;6.97;;;-0.10;99.90;;;0.06;62.49;101813.66;5073457;28;20071;-82
2024/01/08 03:47:39;;;;;;;13.70;7.45;;;-0.10;99.90;;;0.15;62.94;101820.88;5073891;28;20496;-82
2024/01/08 03:50:10;;;;;;;11.68;7.00;;;0.00;99.90;;;0.11;62.58;101814.16;5059228;28;20060;-83
2024/01/08 03:52:37;;;;;;;12.73;7.32;;;-0.10;99.90;;;0.12;62.74;101804.50;5074475;28;20049;-82
2024/01/08 03:55:09;;;;;;;13.00;7.22;;;-0.10;99.90;;;0.15;63.02;101804.28;5078162;28;20135;-82
2024/01/08 03:57:37;;;;;;;12.77;7.78;;;0.00;99.90;;;0.17;62.96;101815.50;5062663;28;20045;-82
2024/01/08 04:00:06;;;;;;;13.02;7.70;;;0.00;99.90;;;0.11;62.85;101814.16;5080331;28;20044;-83
2024/01/08 04:02:40;;;;;;;14.75;7.72;;;-0.10;99.90;;;0.13;63.39;101819.28;5060071;28;20053;-82
2024/01/08 04:05:12;;;;;;;12.35;7.53;;;-0.10;99.90;;;0.11;63.48;101818.56;5069971;28;20566;-82
2024/01/08 04:07:39;;;;;;;15.38;7.53;;;-0.10;99.90;;;0.01;63.60;101817.56;5060798;28;20045;-82
2024/01/08 04:10:08;;;;;;;12.48;7.72;;;-0.20;99.90;;;0.04;63.80;101822.56;5058521;28;20071;-82
2024/01/08 04:12:36;;;;;;;13.02;7.50;;;-0.10;99.90;;;0.05;63.34;101814.59;5058834;28;20127;-82
2024/01/08 04:15:05;;;;;;;12.98;7.95;;;-0.10;99.90;;;-0.13;63.52;101821.16;5058708;28;20504;-82
2024/01/08 04:17:33;;;;;;;14.73;8.30;;;-0.30;99.90;;;-0.12;64.33;101821.03;5059184;28;20090;-82
2024/01/08 04:20:00;;;;;;;13.23;7.50;;;-0.30;99.90;;;0.00;64.21;101819.34;5057649;28;20049;-82
2024/01/08 04:22:29;;;;;;;15.07;8.95;;;-0.20;99.90;;;0.01;63.96;101822.81;5025533;28;20040;-82
2024/01/08 04:24:58;;;;;;;14.20;8.65;;;-0.10;99.90;;;-0.05;63.58;101818.81;5079436;28;20095;-82
2024/01/08 04:27:26;;;;;;;15.63;8.07;;;-0.20;99.90;;;-0.05;63.91;101819.66;5061348;28;20397;-82
2024/01/08 04:29:54;;;;;;;12.70;7.80;;;-0.10;99.90;;;-0.10;63.87;101821.78;5077719;28;20531;-82
2024/01/08 04:32:21;;;;;;;12.77;7.63;;;-0.20;99.90;;;-0.12;63.61;101826.28;5028471;28;20049;-82
2024/01/08 04:34:49;;;;;;;17.23;7.88;;;-0.20;99.90;;;-0.11;63.80;101825.31;5065305;28;20044;-82
2024/01/08 04:37:17;;;;;;;13.73;7.60;;;-0.20;99.90;;;-0.04;63.80;101823.13;5077564;28;20037;-82
2024/01/08 04:39:46;;;;;;;14.43;8.02;;;-0.20;99.90;;;0.02;63.84;101822.69;5063893;28;20075;-82
2024/01/08 04:42:13;;;;;;;13.73;7.82;;;-0.10;99.90;;;-0.16;63.27;101827.44;5057267;28;20049;-82
2024/01/08 04:44:41;;;;;;;13.60;7.85;;;-0.20;99.90;;;-0.19;63.82;101827.66;5077374;28;20056;-82
2024/01/08 04:47:08;;;;;;;12.77;7.50;;;-0.30;99.90;;;-0.18;63.91;101821.47;5078403;28;20413;-82
2024/01/08 04:49:36;;;;;;;11.68;7.60;;;-0.30;99.90;;;-0.30;64.26;101822.31;5077357;28;20452;-82
2024/01/08 04:52:04;;;;;;;13.20;8.68;;;-0.40;99.90;;;-0.22;64.35;101822.63;5068047;28;20048;-82
2024/01/08 04:54:31;;;;;;;12.55;8.20;;;-0.30;99.90;;;-0.13;64.24;101822.00;5057323;28;20048;-82
2024/01/08 04:57:01;;;;;;;14.52;9.10;;;-0.20;99.90;;;-0.21;64.21;101819.06;5074230;28;20052;-82
2024/01/08 04:59:29;;;;;;;15.00;7.75;;;-0.30;99.90;;;-0.20;64.23;101818.09;5076046;28;20466;-82
2024/01/08 05:01:56;;;;;;;15.30;8.32;;;-0.30;99.90;;;-0.19;64.34;101808.47;5076220;28;20032;-82
2024/01/08 05:04:25;;;;;;;14.13;7.65;;;-0.30;99.90;;;-0.12;63.85;101814.97;5077652;28;20464;-82
2024/01/08 05:06:53;;;;;;;14.18;7.97;;;-0.20;99.90;;;-0.12;64.54;101813.16;5076947;28;20127;-84
2024/01/08 05:09:21;;;;;;;18.42;9.25;;;-0.20;99.90;;;-0.04;64.31;101817.88;5080677;28;20134;-86
2024/01/08 05:11:48;;;;;;;14.25;8.18;;;-0.20;99.90;;;-0.10;64.08;101819.16;5077739;28;20048;-84
2024/01/08 05:14:21;;;;;;;16.27;8.70;;;-0.20;99.90;;;-0.12;64.37;101815.78;5051460;28;20113;-86
2024/01/08 05:16:48;;;;;;;14.18;8.90;;;-0.20;99.90;;;-0.07;64.30;101808.44;5055942;28;20397;-87
2024/01/08 05:19:16;;;;;;;13.48;7.70;;;-0.20;99.90;;;-0.03;64.40;101817.75;5075747;28;20569;-86
2024/01/08 05:21:44;;;;;;;14.25;8.43;;;-0.20;99.90;;;-0.14;64.19;101809.84;5093294;28;20048;-87
2024/01/08 05:24:13;;;;;;;14.68;8.57;;;-0.20;99.90;;;-0.07;64.70;101813.69;5063399;28;20041;-87
2024/01/08 05:26:41;;;;;;;14.23;8.45;;;-0.20;99.90;;;-0.02;64.52;101810.72;5069120;28;20118;-86
2024/01/08 05:29:09;;;;;;;17.08;8.70;;;-0.10;99.90;;;-0.08;64.53;101808.56;5074336;28;20040;-88
2024/01/08 05:31:38;;;;;;;14.35;8.77;;;-0.20;99.90;;;-0.07;64.90;101797.94;5093139;28;20040;-87
2024/01/08 05:34:05;;;;;;;15.27;9.02;;;-0.10;99.90;;;-0.01;64.46;101807.16;5061835;28;20094;-86
2024/01/08 05:36:33;;;;;;;17.33;8.80;;;-0.10;99.90;;;-0.03;64.39;101807.28;5061665;28;20045;-86
2024/01/08 05:39:00;;;;;;;13.65;8.15;;;-0.10;99.90;;;0.03;64.92;101800.75;5057942;28;20040;-86
2024/01/08 05:41:28;;;;;;;16.20;8.98;;;0.10;99.90;;;-0.06;64.83;101804.84;5080020;28;20055;-86
2024/01/08 05:43:57;;;;;;;15.90;8.95;;;-0.10;99.90;;;-0.09;64.38;101781.50;5091062;28;20113;-86
2024/01/08 05:46:24;;;;;;;15.45;8.00;;;-0.10;99.90;;;-0.16;64.24;101803.84;5064855;28;20062;-84
2024/01/08 05:48:53;;;;;;;14.45;8.35;;;-0.20;99.90;;;-0.20;63.88;101799.75;5010162;28;20083;-83
2024/01/08 05:51:21;;;;;;;13.68;7.72;;;-0.20;99.90;;;-0.13;64.52;101790.53;5058981;28;20041;-82
2024/01/08 05:53:50;;;;;;;13.35;8.52;;;-0.20;99.90;;;-0.18;64.07;101794.44;5043492;28;20087;-87
2024/01/08 05:56:18;;;;;;;16.48;8.40;;;-0.20;99.90;;;-0.23;64.23;101800.00;5061910;28;20044;-85
2024/01/08 05:58:46;;;;;;;14.27;8.68;;;-0.20;99.90;;;-0.22;64.28;101798.19;5067929;28;20044;-85
2024/01/08 06:01:13;;;;;;;15.85;8.75;;;-0.20;99.90;;;-0.18;64.30;101810.16;5079637;28;20531;-85
2024/01/08 06:03:41;;;;;;;14.02;8.23;;;-0.20;99.90;;;-0.28;63.99;101812.59;5081172;28;20044;-85
2024/01/08 06:06:13;;;;;;;13.85;8.55;;;-0.20;99.90;;;-0.42;64.55;101807.47;5064264;28;20040;-86
2024/01/08 06:08:42;;;;;;;16.10;9.18;;;-0.40;99.90;;;-0.26;64.94;101810.69;5071395;28;20041;-86
2024/01/08 06:11:09;;;;;;;17.20;8.40;;;-0.30;99.90;;;-0.25;64.92;101830.69;5057384;28;20045;-86
2024/01/08 06:13:40;;;;;;;15.25;9.13;;;-0.30;99.90;;;-0.30;65.14;101828.41;5069735;28;20094;-83
2024/01/08 06:16:08;;;;;;;18.27;9.23;;;-0.30;99.90;;;-0.31;65.17;101812.78;5079034;28;20049;-84
2024/01/08 06:18:36;;;;;;;15.57;8.88;;;-0.30;99.90;;;-0.30;65.65;101819.69;5067711;28;20455;-84
2024/01/08 06:21:05;;;;;;;16.35;8.65;;;-0.30;99.90;;;-0.30;65.57;101807.44;5024791;28;20075;-84
2024/01/08 06:23:35;;;;;;;14.98;8.85;;;-0.30;99.90;;;-0.33;65.58;101809.44;5074764;28;20057;-83
2024/01/08 06:26:04;;;;;;;21.15;9.73;;;-0.10;99.90;;;-0.28;65.42;101816.03;5059401;28;20064;-84
2024/01/08 06:28:32;;;;;;;15.88;8.95;;;-0.30;99.90;;;-0.31;65.72;101842.44;5060169;28;20037;-84
2024/01/08 06:31:06;;;;;;;17.23;9.10;;;-0.40;99.90;;;-0.41;65.77;101828.31;5054374;28;20053;-84
2024/01/08 06:33:34;;;;;;;15.85;8.75;;;-0.40;99.90;;;-0.38;65.78;101814.19;5078137;28;20504;-84
2024/01/08 06:36:02;;;;;;;14.27;8.07;;;-0.40;99.90;;;-0.37;65.58;101797.50;5059573;28;20061;-84
2024/01/08 06:38:33;;;;;;;13.40;8.07;;;-0.40;99.90;;;-0.42;66.01;101815.34;5025607;28;20049;-84
2024/01/08 06:41:02;;;;;;;15.57;8.77;;;-0.40;99.90;;;-0.34;66.06;101815.63;5026417;28;20480;-84
2024/01/08 06:43:29;;;;;;;16.08;9.15;;;-0.30;99.90;;;-0.29;66.21;101818.78;5040740;28;20041;-84
2024/01/08 06:45:57;;;;;;;18.25;9.32;;;-0.30;99.90;;;-0.18;65.83;101828.50;5057995;28;20102;-84
2024/01/08 06:48:25;;;;;;;12.52;7.63;;;-0.20;99.90;;;-0.34;64.40;101823.47;5056557;28;20099;-84
2024/01/08 06:50:52;;;;;;;13.05;7.55;;;-0.30;99.90;;;-0.40;64.53;101822.13;5054260;28;20100;-84
2024/01/08 06:53:20;;;;;;;13.35;7.85;;;-0.30;99.90;;;-0.36;64.45;101815.72;5051006;28;20052;-84
2024/01/08 06:55:50;;;;;;;12.50;7.93;;;-0.30;99.90;;;-0.24;65.00;101821.91;5040758;28;20053;-84
2024/01/08 06:58:19;;;;;;;15.02;7.95;;;-0.20;99.90;;;-0.28;64.62;101809.97;5057279;28;20049;-84
2024/01/08 07:00:47;;;;;;;13.40;7.78;;;-0.20;99.90;;;-0.19;64.56;101814.56;5041501;28;20049;-84
2024/01/08 07:03:16;;;;;;;13.93;7.90;;;-0.20;99.90;;;-0.06;65.02;101817.97;5040106;28;20044;-84
2024/01/08 07:05:44;;;;;;;13.70;7.55;;;-0.10;99.90;;;-0.03;64.51;101824.78;5054978;28;20053;-84
2024/01/08 07:08:12;;;;;;;13.77;7.90;;;0.00;99.90;;;-0.10;64.13;101816.53;5020310;28;20123;-84
2024/01/08 07:10:40;;;;;;;13.85;7.38;;;0.00;99.90;;;-0.15;62.96;101829.09;5005261;28;20045;-84
2024/01/08 07:13:07;;;;;;;13.80;7.07;;;-0.10;99.90;;;-0.15;63.36;101817.78;5073824;28;20052;-84
2024/01/08 07:15:42;;;;;;;13.02;6.90;;;-0.10;99.90;;;-0.04;63.88;101818.72;5066176;28;20136;-84
2024/01/08 07:18:09;;;;;;;11.77;7.18;;;0.00;99.90;;;-0.02;63.24;101824.69;5077745;28;20045;-84
2024/01/08 07:20:38;;;;;;;14.88;7.60;;;0.00;99.90;;;-0.03;62.93;101825.63;5063708;28;20045;-84
2024/01/08 07:23:06;;;;;;;12.90;7.20;;;0.00;99.90;;;-0.14;63.28;101836.03;5056410;28;20052;-84
2024/01/08 07:25:37;;;;;;;13.95;7.63;;;-0.10;99.90;;;-0.12;63.93;101833.31;5078420;28;20102;-84
2024/01/08 07:28:07;;;;;;;13.63;7.85;;;-0.10;99.90;;;-0.11;63.94;101837.59;5078375;28;20495;-84
2024/01/08 07:30:35;;;;;;;14.43;7.35;;;-0.10;99.90;;;-0.06;64.01;101838.94;5082976;28;20098;-84
2024/01/08 07:33:05;;;;;;;12.55;7.32;;;-0.10;99.90;;;-0.05;63.93;101834.53;5084520;28;20108;-84
2024/01/08 07:35:34;;;;;;;14.10;8.07;;;0.00;99.90;;;-0.17;64.23;101832.78;5099230;28;20079;-85
2024/01/08 07:38:02;;;;;;;13.40;7.47;;;-0.10;99.90;;;-0.22;64.46;101832.28;5083701;28;20127;-84
2024/01/08 07:40:29;;;;;;;12.20;7.20;;;-0.20;99.90;;;-0.11;64.76;101833.19;5070674;28;20041;-84
2024/01/08 07:42:58;;;;;;;14.27;7.70;;;-0.10;99.90;;;-0.24;65.17;101848.13;5056483;28;20051;-84
2024/01/08 07:45:28;;;;;;;15.52;8.02;;;-0.20;99.90;;;-0.37;65.51;101844.69;5081430;28;20093;-84
2024/01/08 07:47:56;;;;;;;16.75;7.82;;;-0.30;99.90;;;-0.36;65.89;101846.34;5064082;28;20078;-84
2024/01/08 07:50:26;;;;;;;14.63;8.77;;;-0.30;99.90;;;-0.28;65.99;101854.53;5069398;28;20068;-85
2024/01/08 07:52:53;;;;;;;12.38;8.00;;;-0.30;99.90;;;-0.22;65.89;101853.25;5068123;28;20048;-84
2024/01/08 07:55:21;;;;;;;16.73;8.10;;;-0.20;99.90;;;-0.32;65.57;101847.81;5078574;28;20070;-84
2024/01/08 07:57:50;;;;;;;15.48;8.15;;;-0.30;99.90;;;-0.31;65.77;101849.47;5081078;28;20108;-84
2024/01/08 08:00:20;;;;;;;12.90;7.35;;;-0.30;99.90;;;-0.35;66.03;101854.09;5068174;28;20071;-84
2024/01/08 08:02:49;;;;;;;13.90;7.40;;;-0.30;99.90;;;-0.25;66.19;101859.53;5062001;28;20156;-85
2024/01/08 08:05:21;;;;;;;15.45;7.55;;;-0.20;99.90;;;-0.27;65.88;101858.81;5061894;28;20052;-84
2024/01/08 08:07:51;;;;;;;17.48;8.30;;;-0.30;99.90;;;-0.24;65.89;101863.00;5047297;28;20075;-84
2024/01/08 08:10:22;;;;;;;12.30;7.68;;;-0.20;99.90;;;-0.25;65.79;101862.16;5081310;28;20059;-84
2024/01/08 08:12:51;;;;;;;13.68;7.68;;;-0.20;99.90;;;-0.17;65.95;101854.59;5088338;28;20044;-84
2024/01/08 08:15:19;;;;;;;14.35;7.90;;;-0.20;99.90;;;-0.16;65.96;101869.38;5078895;28;20515;-84
2024/01/08 08:17:47;;;;;;;13.35;7.53;;;-0.10;99.90;;;-0.07;66.20;101857.41;5095629;28;20048;-84
2024/01/08 08:20:15;;;;;;;12.20;7.70;;;-0.10;99.90;;;-0.04;66.40;101865.09;5049054;28;20122;-84
2024/01/08 08:22:43;;;;;;;13.40;7.28;;;-0.10;99.90;;;-0.15;65.88;101865.81;5058038;28;20041;-84
2024/01/08 08:25:12;;;;;;;12.70;7.13;;;-0.10;99.90;;;-0.12;66.27;101859.53;5043092;28;20814;-84
2024/01/08 08:27:39;;;;;;;13.90;7.60;;;-0.10;99.90;;;-0.21;66.61;101866.25;5077127;28;20127;-84
2024/01/08 08:30:11;;;;;;;14.70;8.02;;;-0.20;99.90;;;-0.29;66.60;101860.72;5054491;28;20531;-84
2024/01/08 08:32:40;;;;;;;14.07;7.60;;;-0.20;99.90;;;-0.16;67.61;101864.13;5061340;28;20043;-84
2024/01/08 08:35:09;;;;;;;14.70;8.02;;;-0.10;99.90;;;-0.03;67.18;101870.22;5044725;28;20072;-84
2024/01/08 08:37:39;;;;;;;13.02;7.85;;;-0.10;99.90;;;-0.02;66.53;101876.28;5061149;28;20045;-84
2024/01/08 08:40:11;;;;;;;13.00;7.57;;;0.00;99.90;;;-0.11;66.54;101875.13;5075791;28;20411;-84
2024/01/08 08:42:41;;;;;;;14.50;7.95;;;-0.10;99.90;;;-0.16;66.33;101872.00;5062319;28;20123;-85
2024/01/08 08:45:11;;;;;;;14.35;7.97;;;-0.10;99.90;;;-0.20;66.90;101890.69;5047157;28;20598;-85
2024/01/08 08:47:39;;;;;;;12.55;7.38;;;-0.20;99.90;;;-0.23;66.90;101885.66;5079431;28;20138;-85
2024/01/08 08:50:07;;;;;;;15.25;8.00;;;-0.20;99.90;;;-0.25;67.11;101883.13;5077201;28;20045;-85
2024/01/08 08:52:35;;;;;;;13.40;7.72;;;-0.30;99.90;;;-0.22;67.56;101890.78;5074160;28;20052;-85
2024/01/08 08:55:04;;;;;;;14.25;7.82;;;-0.30;99.90;;;-0.12;67.65;101891.81;5069916;28;20063;-85
2024/01/08 08:57:32;;;;;;;14.57;7.68;;;-0.20;99.90;;;-0.27;66.81;101903.38;5078226;28;20052;-85
2024/01/08 09:00:01;;;;;;;13.15;7.60;;;-0.20;99.90;;;-0.27;67.58;101901.59;5077742;28;20423;-85
2024/01/08 09:02:29;;;;;;;12.93;7.95;;;-0.30;99.90;;;-0.22;67.19;101897.81;5079483;28;20052;-85
2024/01/08 09:04:58;;;;;;;12.68;7.35;;;-0.10;99.90;;;-0.18;66.80;101899.28;5078069;28;20071;-85
2024/01/08 09:07:26;;;;;;;13.27;6.97;;;-0.20;99.90;;;-0.23;66.41;101904.84;5080248;28;20048;-85
2024/01/08 09:09:54;;;;;;;12.30;7.05;;;-0.20;99.90;;;-0.24;66.73;101908.41;5078079;28;20562;-85
2024/01/08 09:12:21;;;;;;;13.00;7.50;;;-0.20;99.90;;;-0.32;66.08;101908.09;5060754;28;20053;-86
2024/01/08 09:14:49;;;;;;;12.82;7.20;;;-0.30;99.90;;;-0.28;65.74;101901.69;5060649;28;20542;-85
2024/01/08 09:17:20;;;;;;;12.48;7.18;;;-0.20;99.90;;;-0.14;65.51;101909.47;5062518;28;20052;-85
2024/01/08 09:19:49;;;;;;;13.55;6.22;;;-0.10;99.90;;;-0.12;63.55;101912.81;5061090;28;20127;-85
2024/01/08 09:24:49;;;;;;;10.77;5.50;;;-0.20;99.90;;;-0.16;61.46;101915.75;5034058;28;20501;-86
2024/01/08 09:27:17;;;;;;;10.30;5.95;;;-0.20;99.90;;;-0.13;60.49;101910.28;4998292;28;20042;-86
2024/01/08 09:29:45;;;;;;;10.82;5.15;;;-0.10;99.90;;;-0.13;58.95;101919.00;4984342;28;20406;-87
2024/01/08 09:32:13;;;;;;;8.32;4.75;;;-0.10;99.90;;;-0.20;56.82;101916.88;5017944;28;20132;-88
2024/01/08 09:34:43;;;;;;;7.65;4.28;;;-0.10;99.90;;;-0.18;56.71;101913.22;5034090;28;20041;-88
2024/01/08 09:37:10;;;;;;;8.65;4.43;;;-0.10;99.90;;;-0.11;57.06;101918.88;5035324;28;20043;-88
2024/01/08 09:39:41;;;;;;;10.35;5.05;;;-0.10;99.90;;;-0.02;57.43;101929.56;5001489;28;20049;-88
2024/01/08 09:42:10;;;;;;;9.82;4.97;;;-0.10;99.90;;;-0.13;54.58;101916.38;5026349;28;20042;-88
2024/01/08 09:44:42;;;;;;;9.80;4.55;;;-0.10;99.90;;;-0.21;55.14;101918.66;5015847;28;20120;-88
2024/01/08 09:47:13;;;;;;;12.90;4.55;;;-0.20;99.90;;;-0.33;53.98;101941.34;5016684;28;20450;-88
2024/01/08 09:49:48;;;;;;;7.65;4.45;;;-0.20;99.90;;;-0.34;54.39;101923.94;4998914;28;20096;-88
2024/01/08 09:52:18;;;;;;;7.50;4.22;;;-0.20;99.90;;;-0.29;54.34;101937.56;4997256;28;20115;-89
2024/01/08 09:54:45;;;;;;;9.15;4.53;;;-0.20;99.90;;;-0.22;54.67;101926.66;5015218;28;20054;-88
2024/01/08 09:57:13;;;;;;;7.38;4.07;;;-0.20;99.90;;;-0.12;54.08;101932.94;4999793;28;20046;-88
2024/01/08 09:59:42;;;;;;;9.63;4.78;;;-0.10;99.90;;;-0.13;53.81;101928.66;5016705;28;20041;-88
2024/01/08 10:02:17;;;;;;;7.30;4.53;;;-0.10;99.90;;;-0.09;52.62;101930.94;5019620;28;20072;-84
2024/01/08 10:04:55;;;;;;;9.48;4.03;;;-0.10;99.90;;;-0.12;51.10;101939.03;5001244;28;20049;-84
2024/01/08 10:07:27;;;;;;;8.02;3.60;;;0.10;99.90;;;-0.07;51.37;101939.53;5014340;28;20046;-85
2024/01/08 10:10:00;;;;;;;8.35;2.95;;;0.00;99.90;;;-0.21;45.28;101929.16;4999492;28;20042;-85
2024/01/08 10:12:29;;;;;;;8.02;3.85;;;-0.10;99.90;;;-0.33;46.32;101932.63;5016246;28;20068;-85
2024/01/08 10:14:58;;;;;;;7.30;3.85;;;-0.20;99.90;;;-0.29;46.48;101931.50;4985489;28;20060;-85
2024/01/08 10:17:27;;;;;;;8.40;4.05;;;-0.20;99.90;;;-0.22;46.93;101937.97;5018375;28;20073;-84
2024/01/08 10:20:08;;;;;;;11.43;3.78;;;-0.20;99.90;;;-0.20;48.24;101930.00;4969500;28;20064;-85